Time;durP1;ratioP1;P1;durP2;ratioP2;P2;SDS_P1;SDS_P2;PMS_P1;PMS_P2;Temp;Humidity;BMP_temperature;BMP_pressure;BME280_temperature;BME280_humidity;BME280_pressure;Samples;Min_cycle;Max_cycle;Signal;HPM_P1;HPM_P2
2022/05/06 00:03:14;;;;;;;19.77;11.35;;;14.00;66.80;;;;;;9180070;19;20021;-70
2022/05/06 00:06:23;;;;;;;20.65;11.93;;;14.00;67.60;;;;;;9176772;19;20021;-71
2022/05/06 00:09:29;;;;;;;25.40;13.25;;;13.80;67.60;;;;;;9178304;19;20019;-71
2022/05/06 00:12:37;;;;;;;22.45;12.90;;;13.80;67.30;;;;;;9178347;19;20037;-70
2022/05/06 00:15:42;;;;;;;19.98;11.45;;;13.80;67.30;;;;;;9178843;19;20091;-70
2022/05/06 00:18:50;;;;;;;22.30;12.27;;;13.70;67.60;;;;;;9179056;19;20014;-70
2022/05/06 00:21:55;;;;;;;20.17;12.55;;;13.70;67.90;;;;;;9181168;19;20352;-72
2022/05/06 00:25:03;;;;;;;20.67;12.30;;;13.70;67.90;;;;;;9178385;19;20679;-71
2022/05/06 00:28:12;;;;;;;25.38;11.75;;;13.60;68.70;;;;;;9177941;19;20022;-70
2022/05/06 00:31:17;;;;;;;24.35;13.30;;;13.60;69.10;;;;;;9178996;19;20017;-71
2022/05/06 00:34:31;;;;;;;23.23;12.40;;;13.50;69.00;;;;;;9176363;19;20014;-71
2022/05/06 00:37:36;;;;;;;23.80;12.95;;;13.50;69.70;;;;;;9181254;19;20015;-72
2022/05/06 00:40:42;;;;;;;27.02;13.18;;;13.40;69.20;;;;;;9180999;19;20049;-71
2022/05/06 00:43:47;;;;;;;27.20;13.10;;;13.40;69.80;;;;;;9176328;19;20006;-70
2022/05/06 00:46:59;;;;;;;21.67;12.95;;;13.30;70.00;;;;;;9177661;19;20048;-71
2022/05/06 00:50:09;;;;;;;27.15;12.55;;;13.30;70.60;;;;;;9187398;19;20014;-70
2022/05/06 00:53:17;;;;;;;27.65;13.63;;;13.20;70.70;;;;;;9187420;19;20018;-70
2022/05/06 00:56:26;;;;;;;25.80;12.77;;;13.20;70.80;;;;;;9187967;19;20047;-72
2022/05/06 01:00:17;;;;;;;24.55;12.13;;;13.00;70.70;;;;;;9187558;19;20029;-71
2022/05/06 01:02:59;;;;;;;21.08;12.32;;;13.10;71.70;;;;;;9183754;19;20018;-82
2022/05/06 01:06:13;;;;;;;23.70;12.48;;;13.30;72.20;;;;;;9175176;19;20706;-71
2022/05/06 01:09:31;;;;;;;21.08;12.38;;;13.00;72.00;;;;;;9188417;19;20015;-71
2022/05/06 01:12:38;;;;;;;24.73;12.32;;;12.90;72.50;;;;;;9186632;19;20018;-70
2022/05/06 01:15:50;;;;;;;21.58;13.02;;;12.90;72.80;;;;;;9188777;19;20010;-70
2022/05/06 01:19:01;;;;;;;24.90;12.98;;;12.90;73.00;;;;;;9187597;19;20192;-70
2022/05/06 01:22:10;;;;;;;24.52;12.73;;;12.80;72.90;;;;;;9187121;19;20014;-71
2022/05/06 01:25:22;;;;;;;24.48;13.60;;;12.80;73.20;;;;;;9187145;19;20634;-71
2022/05/06 01:28:34;;;;;;;29.92;15.02;;;12.70;73.30;;;;;;9186381;19;20019;-71
2022/05/06 01:31:48;;;;;;;31.25;15.38;;;12.70;73.30;;;;;;9187389;19;20010;-70
2022/05/06 01:34:54;;;;;;;25.92;14.05;;;12.60;73.50;;;;;;9184927;19;20014;-71
2022/05/06 01:38:06;;;;;;;29.58;14.23;;;12.60;73.70;;;;;;9187098;19;20015;-71
2022/05/06 01:41:19;;;;;;;22.48;14.05;;;12.50;74.20;;;;;;9186345;19;20349;-70
2022/05/06 01:44:40;;;;;;;23.52;12.57;;;12.50;74.10;;;;;;9187084;19;20030;-70
2022/05/06 01:47:53;;;;;;;26.02;13.23;;;12.50;74.10;;;;;;9185945;19;20047;-70
2022/05/06 01:51:06;;;;;;;25.55;13.32;;;12.30;73.60;;;;;;9186273;19;20018;-71
2022/05/06 01:54:17;;;;;;;25.40;13.65;;;12.40;74.30;;;;;;9184809;19;20018;-70
2022/05/06 01:57:25;;;;;;;31.15;13.65;;;12.40;75.10;;;;;;9185005;19;20018;-71
2022/05/06 02:00:36;;;;;;;28.38;13.38;;;12.30;75.10;;;;;;9184499;19;20052;-70
2022/05/06 02:07:15;;;;;;;24.50;13.02;;;12.20;75.20;;;;;;9185877;19;20010;-70
2022/05/06 02:10:31;;;;;;;22.70;12.65;;;12.20;75.30;;;;;;9184678;19;20045;-70
2022/05/06 02:13:43;;;;;;;25.15;13.38;;;12.10;75.60;;;;;;9184551;19;20014;-70
2022/05/06 02:17:08;;;;;;;26.88;11.65;;;12.40;76.20;;;;;;9184835;19;20099;-70
2022/05/06 02:20:36;;;;;;;23.13;11.25;;;12.00;76.30;;;;;;9183265;19;20019;-70
2022/05/06 02:24:12;;;;;;;21.02;11.05;;;12.00;76.80;;;;;;9184756;19;20022;-71
2022/05/06 02:27:40;;;;;;;19.20;12.05;;;11.90;81.60;;;;;;9186451;19;20010;-71
2022/05/06 02:34:16;;;;;;;23.55;12.15;;;11.90;77.10;;;;;;9183701;19;20041;-70
2022/05/06 02:37:32;;;;;;;20.55;12.05;;;11.80;77.30;;;;;;9184939;19;20021;-71
2022/05/06 02:40:40;;;;;;;19.77;11.32;;;11.80;77.80;;;;;;9183566;19;20007;-70
2022/05/06 02:43:54;;;;;;;24.85;11.88;;;11.70;78.30;;;;;;9180861;19;20022;-71
2022/05/06 02:47:09;;;;;;;23.15;12.98;;;11.70;80.30;;;;;;9184188;19;20014;-70
2022/05/06 02:50:14;;;;;;;23.38;13.05;;;11.60;78.00;;;;;;9183403;19;20010;-71
2022/05/06 02:53:33;;;;;;;24.35;13.55;;;11.60;77.40;;;;;;9183010;19;20709;-70
2022/05/06 02:56:39;;;;;;;23.67;14.23;;;11.60;77.60;;;;;;9185191;19;20110;-70
2022/05/06 02:59:48;;;;;;;27.15;13.48;;;11.50;77.60;;;;;;9183700;19;20010;-71
2022/05/06 03:03:00;;;;;;;25.98;14.55;;;11.50;77.70;;;;;;9183873;19;20422;-72
2022/05/06 03:06:11;;;;;;;27.33;14.90;;;11.50;77.80;;;;;;9185194;19;20501;-70
2022/05/06 03:09:17;;;;;;;32.30;14.93;;;11.40;77.70;;;;;;9182785;19;20022;-70
2022/05/06 03:12:26;;;;;;;24.77;14.32;;;11.40;78.20;;;;;;9182613;19;20014;-71
2022/05/06 03:15:42;;;;;;;;;;;11.40;78.20;;;;;;9181854;19;20021;-70
2022/05/06 03:18:52;;;;;;;39.42;15.32;;;11.40;77.70;;;;;;9181679;19;19982;-70
2022/05/06 03:21:58;;;;;;;37.97;16.23;;;11.30;77.30;;;;;;9185148;19;20014;-70
2022/05/06 03:25:05;;;;;;;28.42;14.70;;;11.30;77.70;;;;;;9181578;19;20066;-69
2022/05/06 03:28:11;;;;;;;26.02;14.65;;;11.30;77.70;;;;;;9182225;19;20014;-71
2022/05/06 03:31:19;;;;;;;28.80;14.20;;;11.30;78.50;;;;;;9183600;19;20344;-70
2022/05/06 03:34:41;;;;;;;30.73;16.05;;;11.30;79.00;;;;;;9180871;19;20060;-69
2022/05/06 03:37:47;;;;;;;28.80;15.23;;;11.90;79.60;;;;;;9181813;19;20442;-71
2022/05/06 03:40:55;;;;;;;35.88;16.15;;;11.20;79.20;;;;;;9181752;19;20018;-70
2022/05/06 03:44:03;;;;;;;31.02;16.35;;;11.20;79.20;;;;;;9178759;19;20479;-70
2022/05/06 03:47:22;;;;;;;34.63;16.77;;;11.10;79.40;;;;;;9181628;19;20031;-70
2022/05/06 03:53:48;;;;;;;37.22;17.55;;;11.10;78.90;;;;;;9183132;19;20007;-70
2022/05/06 03:56:54;;;;;;;30.98;16.60;;;11.10;79.90;;;;;;9181210;19;20019;-70
2022/05/06 04:00:07;;;;;;;40.15;16.92;;;11.10;80.00;;;;;;9181702;19;20040;-71
2022/05/06 04:03:25;;;;;;;33.05;16.75;;;11.00;82.50;;;;;;9182133;19;20340;-70
2022/05/06 04:06:33;;;;;;;34.88;16.65;;;11.00;79.30;;;;;;9182041;19;20014;-70
2022/05/06 04:09:40;;;;;;;35.80;16.45;;;11.00;81.20;;;;;;9181059;19;20099;-70
2022/05/06 04:12:49;;;;;;;31.05;16.98;;;11.00;76.80;;;;;;9180196;19;20045;-69
2022/05/06 04:15:57;;;;;;;34.90;16.75;;;11.00;76.80;;;;;;9178720;19;20033;-71
2022/05/06 04:19:09;;;;;;;32.97;16.20;;;11.00;76.90;;;;;;9180839;19;20022;-71
2022/05/06 04:25:43;;;;;;;32.35;17.83;;;11.00;77.60;;;;;;9180892;19;20010;-72
2022/05/06 04:28:54;;;;;;;29.95;16.88;;;10.90;76.90;;;;;;9180277;19;20029;-70
2022/05/06 04:32:04;;;;;;;39.30;18.45;;;10.80;77.30;;;;;;9180239;19;20021;-70
2022/05/06 04:35:18;;;;;;;33.88;18.13;;;10.90;77.40;;;;;;9178494;19;20435;-70
2022/05/06 04:38:28;;;;;;;32.80;17.48;;;10.90;77.30;;;;;;9178743;19;20010;-71
2022/05/06 04:41:37;;;;;;;33.83;18.80;;;10.90;77.30;;;;;;9178143;19;20025;-72
2022/05/06 04:44:46;;;;;;;36.67;19.27;;;10.90;77.40;;;;;;9179538;19;20018;-70
2022/05/06 04:47:52;;;;;;;33.35;18.13;;;10.90;77.80;;;;;;9180335;19;20103;-70
2022/05/06 04:51:07;;;;;;;37.85;18.10;;;10.90;77.80;;;;;;9179363;19;20019;-70
2022/05/06 04:54:16;;;;;;;37.47;19.35;;;11.90;78.80;;;;;;9178842;19;20081;-71
2022/05/06 04:57:23;;;;;;;43.60;20.20;;;10.80;77.80;;;;;;9179019;19;20096;-70
2022/05/06 05:00:30;;;;;;;37.72;19.27;;;10.90;78.20;;;;;;9180210;19;20057;-70
2022/05/06 05:03:42;;;;;;;40.60;19.30;;;10.90;78.10;;;;;;9179740;19;20499;-70
2022/05/06 05:07:00;;;;;;;34.47;19.40;;;10.90;78.20;;;;;;9179438;19;20391;-70
2022/05/06 05:10:10;;;;;;;36.63;18.35;;;11.00;78.50;;;;;;9179490;19;20014;-70
2022/05/06 05:13:15;;;;;;;34.35;19.00;;;11.00;78.30;;;;;;9179340;19;20096;-71
2022/05/06 05:16:21;;;;;;;40.83;19.90;;;11.00;78.50;;;;;;9176699;19;20029;-70
2022/05/06 05:19:27;;;;;;;40.83;20.40;;;10.90;78.50;;;;;;9178555;19;20026;-70
2022/05/06 05:22:43;;;;;;;48.55;20.67;;;11.00;78.50;;;;;;9178140;19;20010;-72
2022/05/06 05:25:52;;;;;;;45.55;20.92;;;11.00;78.80;;;;;;9177763;19;20015;-70
2022/05/06 05:29:08;;;;;;;39.42;20.65;;;11.00;78.70;;;;;;9172122;19;20046;-69
2022/05/06 05:32:17;;;;;;;38.38;21.35;;;11.10;79.00;;;;;;9173411;19;20019;-71
2022/05/06 05:35:24;;;;;;;43.20;21.73;;;11.10;79.20;;;;;;9174767;19;20011;-71
2022/05/06 05:38:41;;;;;;;39.78;19.38;;;11.20;79.00;;;;;;9183273;19;20026;-70
2022/05/06 05:41:48;;;;;;;42.63;22.25;;;11.20;79.40;;;;;;9177559;19;20023;-71
2022/05/06 05:48:23;;;;;;;44.60;20.42;;;11.30;79.00;;;;;;9186845;19;20044;-70
2022/05/06 05:51:39;;;;;;;45.47;21.42;;;11.30;78.90;;;;;;9187882;19;20070;-71
2022/05/06 05:54:46;;;;;;;44.90;21.70;;;11.50;79.90;;;;;;9184110;19;20025;-70
2022/05/06 05:57:54;;;;;;;42.08;20.67;;;11.50;79.60;;;;;;9186222;19;20015;-70
2022/05/06 06:01:00;;;;;;;39.70;19.80;;;11.60;79.80;;;;;;9183183;19;20033;-70
2022/05/06 06:04:12;;;;;;;44.55;20.60;;;11.70;79.50;;;;;;9179299;19;20015;-71
2022/05/06 06:07:23;;;;;;;42.80;20.75;;;11.80;79.40;;;;;;9182594;19;20097;-69
2022/05/06 06:10:36;;;;;;;55.05;21.80;;;11.90;79.70;;;;;;9184885;19;20020;-69
2022/05/06 06:13:47;;;;;;;44.00;21.73;;;12.10;79.30;;;;;;9185639;19;20018;-69
2022/05/06 06:17:00;;;;;;;44.88;22.70;;;12.30;79.60;;;;;;9179143;19;20026;-72
2022/05/06 06:20:14;;;;;;;50.80;22.35;;;12.50;79.80;;;;;;9181645;19;20027;-69
2022/05/06 06:23:26;;;;;;;47.83;21.92;;;12.60;79.30;;;;;;9179857;19;20015;-69
2022/05/06 06:26:44;;;;;;;52.63;22.48;;;12.80;79.30;;;;;;9179835;19;20015;-70
2022/05/06 06:29:54;;;;;;;50.25;23.10;;;12.90;79.30;;;;;;9180279;19;20074;-69
2022/05/06 06:33:06;;;;;;;44.63;22.63;;;13.30;79.50;;;;;;9182904;19;20062;-70
2022/05/06 06:36:17;;;;;;;58.72;24.05;;;13.40;78.60;;;;;;9178987;19;20013;-69
2022/05/06 06:39:25;;;;;;;48.13;23.20;;;13.60;78.70;;;;;;9177302;19;20025;-70
2022/05/06 06:42:36;;;;;;;43.90;22.35;;;13.80;78.80;;;;;;9176101;19;20029;-69
2022/05/06 06:45:48;;;;;;;48.25;23.33;;;14.00;78.20;;;;;;9178279;19;20403;-70
2022/05/06 06:49:23;;;;;;;41.00;22.08;;;14.30;78.10;;;;;;9179794;19;20011;-70
2022/05/06 06:52:42;;;;;;;41.28;21.23;;;14.50;77.50;;;;;;9178569;19;20014;-71
2022/05/06 06:55:47;;;;;;;48.35;24.83;;;14.80;77.10;;;;;;9178103;19;20015;-70
2022/05/06 06:59:00;;;;;;;41.92;21.83;;;15.00;76.80;;;;;;9180159;19;20470;-70
2022/05/06 07:02:08;;;;;;;44.65;23.50;;;15.20;77.20;;;;;;9179143;19;20021;-70
2022/05/06 07:05:16;;;;;;;46.75;23.40;;;15.50;76.80;;;;;;9175622;19;20493;-70
2022/05/06 07:11:56;;;;;;;42.90;22.70;;;16.00;76.00;;;;;;9179820;19;20022;-70
2022/05/06 07:15:12;;;;;;;45.17;22.77;;;16.20;76.00;;;;;;9176781;19;20471;-70
2022/05/06 07:18:18;;;;;;;42.05;24.40;;;16.50;76.10;;;;;;9176853;19;20023;-71
2022/05/06 07:21:29;;;;;;;41.72;23.08;;;16.70;76.20;;;;;;9177903;19;20029;-70
2022/05/06 07:24:36;;;;;;;41.38;21.77;;;16.90;76.10;;;;;;9177909;19;20011;-70
2022/05/06 07:27:43;;;;;;;40.38;22.25;;;17.20;76.00;;;;;;9178590;19;20019;-70
2022/05/06 07:30:51;;;;;;;39.85;20.98;;;17.40;75.90;;;;;;9176909;19;20010;-71
2022/05/06 07:34:11;;;;;;;41.40;20.20;;;17.60;76.00;;;;;;9177226;19;20022;-69
2022/05/06 07:37:19;;;;;;;37.85;19.58;;;17.80;75.90;;;;;;9174627;19;20543;-70
2022/05/06 07:40:31;;;;;;;37.70;19.50;;;18.10;77.10;;;;;;9176214;19;20021;-70
2022/05/06 07:43:40;;;;;;;42.83;19.08;;;18.20;75.90;;;;;;9171950;19;20025;-70
2022/05/06 07:46:50;;;;;;;36.28;19.15;;;18.40;76.70;;;;;;9178090;19;20024;-70
2022/05/06 07:49:56;;;;;;;31.27;17.25;;;18.60;76.90;;;;;;9175668;19;20404;-70
2022/05/06 07:53:05;;;;;;;30.58;17.08;;;18.80;77.10;;;;;;9175227;19;20019;-70
2022/05/06 07:56:19;;;;;;;34.38;18.48;;;19.30;76.70;;;;;;9174687;19;20467;-70
2022/05/06 07:59:24;;;;;;;32.83;18.95;;;19.10;76.50;;;;;;9175739;19;20391;-70
2022/05/06 08:05:56;;;;;;;32.00;17.65;;;19.50;75.00;;;;;;9175232;19;20021;-71
2022/05/06 08:09:02;;;;;;;28.95;16.30;;;19.50;62.10;;;;;;9175911;19;20014;-69
2022/05/06 08:12:11;;;;;;;37.00;16.88;;;19.60;61.80;;;;;;9175682;19;20014;-70
2022/05/06 08:15:22;;;;;;;33.35;16.95;;;19.70;61.70;;;;;;9170957;19;20109;-70
2022/05/06 08:18:33;;;;;;;25.67;15.43;;;19.90;61.50;;;;;;9171880;19;20010;-69
2022/05/06 08:21:41;;;;;;;25.48;14.68;;;20.00;61.30;;;;;;9174471;19;20014;-70
2022/05/06 08:24:47;;;;;;;31.95;16.00;;;20.10;61.30;;;;;;9172170;19;20490;-70
2022/05/06 08:28:19;;;;;;;27.67;15.68;;;20.20;61.10;;;;;;9173260;19;20737;-70
2022/05/06 08:31:32;;;;;;;25.00;15.32;;;20.30;60.90;;;;;;9167861;19;20018;-69
2022/05/06 08:34:39;;;;;;;32.50;17.25;;;20.40;60.80;;;;;;9171414;19;20015;-69
2022/05/06 08:37:45;;;;;;;37.63;19.73;;;20.60;60.70;;;;;;9169193;19;20487;-70
2022/05/06 08:40:53;;;;;;;35.05;18.38;;;20.70;60.60;;;;;;9169533;19;20050;-72
2022/05/06 08:50:50;;;;;;;32.75;18.77;;;20.80;60.40;;;;;;9167048;19;20445;-70
2022/05/06 08:50:58;;;;;;;30.15;18.40;;;21.00;60.20;;;;;;9170907;19;20054;-69
2022/05/06 08:54:07;;;;;;;31.83;19.08;;;21.10;60.00;;;;;;9171621;19;20081;-68
2022/05/06 08:57:12;;;;;;;32.30;18.08;;;21.20;60.00;;;;;;9174018;19;20517;-68
2022/05/06 09:00:18;;;;;;;29.90;18.83;;;21.30;59.90;;;;;;9173502;19;20013;-71
2022/05/06 09:03:26;;;;;;;33.10;18.35;;;21.40;59.70;;;;;;9173662;19;20032;-69
2022/05/06 09:06:35;;;;;;;26.30;16.63;;;21.50;59.70;;;;;;9174622;19;20510;-69
2022/05/06 09:09:42;;;;;;;29.25;18.25;;;21.60;59.60;;;;;;9176189;19;20018;-70
2022/05/06 09:12:55;;;;;;;23.55;14.63;;;21.70;59.50;;;;;;9184141;19;20529;-68
2022/05/06 09:19:39;;;;;;;24.30;15.07;;;22.00;59.00;;;;;;9185595;19;20011;-69
2022/05/06 09:22:47;;;;;;;21.55;13.23;;;22.00;59.00;;;;;;9185794;19;20019;-69
2022/05/06 09:25:55;;;;;;;22.20;13.48;;;22.20;58.80;;;;;;9187252;19;20011;-69
2022/05/06 09:29:01;;;;;;;22.15;13.77;;;22.30;58.80;;;;;;9184166;19;20630;-68
2022/05/06 09:32:32;;;;;;;23.60;12.88;;;22.40;58.60;;;;;;9186809;19;20042;-69
2022/05/06 09:35:37;;;;;;;25.83;14.68;;;22.50;58.30;;;;;;9186765;19;20017;-69
2022/05/06 09:39:20;;;;;;;22.02;13.98;;;22.60;58.30;;;;;;9184039;19;20030;-69
2022/05/06 09:42:27;;;;;;;20.55;10.93;;;22.60;57.90;;;;;;9182463;19;20021;-68
2022/05/06 09:45:37;;;;;;;18.88;12.00;;;22.70;57.90;;;;;;9187519;19;20021;-69
2022/05/06 09:48:57;;;;;;;27.23;14.77;;;22.80;57.80;;;;;;9185977;19;20025;-68
2022/05/06 09:52:11;;;;;;;16.83;10.40;;;22.90;57.50;;;;;;9186033;19;20015;-69
2022/05/06 09:55:25;;;;;;;18.58;11.43;;;23.00;57.30;;;;;;9187283;19;20464;-69
2022/05/06 09:58:30;;;;;;;18.10;11.40;;;23.10;57.20;;;;;;9182402;19;20023;-69
2022/05/06 10:01:38;;;;;;;21.42;12.60;;;23.20;57.10;;;;;;9186300;19;20424;-68
2022/05/06 10:04:44;;;;;;;17.65;11.73;;;23.30;57.20;;;;;;9182277;19;20022;-69
2022/05/06 10:07:55;;;;;;;17.30;9.85;;;23.40;57.00;;;;;;9185559;19;20010;-69
2022/05/06 10:11:12;;;;;;;15.77;9.88;;;23.50;56.90;;;;;;9184666;19;20014;-68
2022/05/06 10:14:20;;;;;;;15.07;9.63;;;23.60;56.50;;;;;;9187243;19;20007;-68
2022/05/06 10:17:49;;;;;;;13.35;8.35;;;23.70;56.40;;;;;;9184065;19;20007;-70
2022/05/06 10:20:56;;;;;;;14.65;7.47;;;23.80;55.90;;;;;;9182851;19;20010;-68
2022/05/06 10:24:16;;;;;;;10.82;6.90;;;24.00;55.90;;;;;;9184253;19;20356;-68
2022/05/06 10:34:14;;;;;;;13.25;7.80;;;24.30;55.40;;;;;;9186495;19;20038;-69
2022/05/06 10:37:19;;;;;;;11.65;7.22;;;24.40;55.10;;;;;;9184822;19;20035;-69
2022/05/06 10:40:35;;;;;;;14.05;7.43;;;24.50;55.00;;;;;;9184414;19;20020;-69
2022/05/06 10:43:55;;;;;;;10.13;7.07;;;24.50;54.60;;;;;;9181804;19;20018;-69
2022/05/06 10:47:00;;;;;;;12.52;6.95;;;24.60;54.60;;;;;;9183793;19;20539;-69
2022/05/06 10:50:19;;;;;;;12.43;6.45;;;24.60;54.60;;;;;;9183767;19;20010;-68
2022/05/06 10:53:36;;;;;;;10.65;6.75;;;24.70;54.30;;;;;;9183739;19;20045;-69
2022/05/06 10:56:44;;;;;;;12.05;7.00;;;24.80;54.30;;;;;;9184663;19;20023;-69
2022/05/06 10:59:55;;;;;;;9.55;6.95;;;24.80;54.10;;;;;;9183034;19;20007;-68
2022/05/06 11:03:03;;;;;;;12.75;7.03;;;24.80;53.80;;;;;;9184979;19;20019;-69
2022/05/06 11:06:13;;;;;;;8.80;6.20;;;24.90;53.80;;;;;;9183835;19;20018;-69
2022/05/06 11:09:32;;;;;;;10.90;6.97;;;25.00;53.80;;;;;;9184900;19;20052;-69
2022/05/06 11:12:39;;;;;;;9.90;6.75;;;25.00;53.30;;;;;;9182426;19;20482;-68
2022/05/06 11:15:50;;;;;;;12.35;7.15;;;25.00;53.40;;;;;;9182699;19;20495;-69
2022/05/06 11:19:00;;;;;;;10.68;7.63;;;25.10;53.30;;;;;;9180381;19;20011;-69
2022/05/06 11:22:09;;;;;;;10.85;7.70;;;25.10;53.30;;;;;;9183838;19;20033;-69
2022/05/06 11:25:18;;;;;;;8.88;6.45;;;25.20;53.10;;;;;;9181648;19;20026;-68
2022/05/06 11:28:27;;;;;;;12.80;6.70;;;25.20;52.90;;;;;;9182556;19;20471;-68
2022/05/06 11:31:36;;;;;;;11.73;6.90;;;25.20;52.90;;;;;;9183060;19;20026;-69
2022/05/06 11:34:50;;;;;;;5.90;4.30;;;25.20;52.80;;;;;;9181021;19;20014;-69
2022/05/06 11:38:04;;;;;;;7.38;4.72;;;25.30;52.60;;;;;;9181788;19;20022;-68
2022/05/06 11:41:09;;;;;;;;;;;25.30;52.50;;;;;;9183188;19;20015;-69
2022/05/06 11:47:27;;;;;;;8.88;4.45;;;25.30;52.90;;;;;;9181862;19;19964;-69
2022/05/06 11:47:49;;;;;;;5.63;3.70;;;25.40;52.60;;;;;;9182119;19;20022;-68
2022/05/06 11:51:03;;;;;;;6.75;3.72;;;25.40;52.10;;;;;;9181463;19;20018;-69
2022/05/06 11:54:09;;;;;;;4.72;4.05;;;25.50;52.10;;;;;;9181199;19;20011;-70
2022/05/06 11:57:19;;;;;;;4.72;3.58;;;;;;;;;;9181347;19;20044;-68
2022/05/06 12:00:25;;;;;;;5.20;3.00;;;25.60;51.20;;;;;;9183230;19;20344;-69
2022/05/06 12:03:38;;;;;;;3.15;2.67;;;25.70;51.60;;;;;;9179822;19;20018;-69
2022/05/06 12:07:06;;;;;;;4.35;2.97;;;25.70;51.30;;;;;;9182985;19;20074;-68
2022/05/06 12:10:12;;;;;;;7.53;2.75;;;25.70;51.20;;;;;;9181238;19;20019;-69
2022/05/06 12:13:17;;;;;;;4.32;3.13;;;25.70;51.80;;;;;;9180377;19;20011;-69
2022/05/06 12:16:22;;;;;;;2.50;2.30;;;25.80;51.10;;;;;;9178643;19;20422;-70
2022/05/06 12:19:41;;;;;;;3.03;2.60;;;25.80;51.00;;;;;;9180491;19;20014;-68
2022/05/06 12:22:58;;;;;;;5.80;2.20;;;25.90;50.40;;;;;;9181993;19;20018;-70
2022/05/06 12:26:06;;;;;;;2.60;2.25;;;25.90;50.30;;;;;;9181011;19;20102;-68
2022/05/06 12:29:23;;;;;;;4.38;2.30;;;26.00;50.50;;;;;;9180310;19;20015;-68
2022/05/06 12:32:34;;;;;;;5.00;1.97;;;26.10;50.00;;;;;;9179608;19;20037;-68
2022/05/06 12:36:00;;;;;;;5.82;2.40;;;26.10;50.20;;;;;;9179746;19;20010;-70
2022/05/06 12:39:22;;;;;;;2.92;1.83;;;26.20;49.80;;;;;;9178529;19;20014;-69
2022/05/06 12:42:27;;;;;;;2.90;2.20;;;26.30;49.60;;;;;;9177816;19;20023;-68
2022/05/06 12:45:59;;;;;;;3.30;2.20;;;26.30;49.70;;;;;;9189104;19;20047;-68
2022/05/06 12:52:37;;;;;;;5.38;2.88;;;26.40;49.50;;;;;;9189178;19;20049;-68
2022/05/06 12:55:54;;;;;;;3.92;2.10;;;26.40;49.20;;;;;;9190310;19;20360;-70
2022/05/06 12:59:08;;;;;;;3.00;2.67;;;26.40;49.30;;;;;;9186547;19;20011;-69
2022/05/06 13:02:13;;;;;;;4.78;2.35;;;26.40;49.00;;;;;;9187814;19;20082;-69
2022/05/06 13:05:19;;;;;;;3.03;2.55;;;26.50;49.00;;;;;;9184729;19;20113;-69
2022/05/06 13:08:29;;;;;;;3.28;2.63;;;26.50;48.80;;;;;;9189785;19;20010;-68
2022/05/06 13:11:38;;;;;;;5.80;2.30;;;26.50;48.50;;;;;;9187541;19;20494;-69
2022/05/06 13:14:55;;;;;;;4.40;2.20;;;26.50;48.80;;;;;;9187287;19;20049;-68
2022/05/06 13:18:03;;;;;;;2.70;2.42;;;26.50;48.30;;;;;;9186677;19;20006;-69
2022/05/06 13:21:11;;;;;;;3.17;2.70;;;26.50;48.50;;;;;;9188095;19;20056;-70
2022/05/06 13:24:21;;;;;;;5.95;3.15;;;26.50;48.40;;;;;;9188932;19;20006;-71
2022/05/06 13:27:29;;;;;;;5.43;3.00;;;26.50;48.20;;;;;;9187412;19;20010;-71
2022/05/06 13:30:40;;;;;;;5.82;3.47;;;26.50;48.20;;;;;;9186644;19;20026;-69
2022/05/06 13:33:47;;;;;;;4.13;3.22;;;26.50;48.00;;;;;;9189616;19;20037;-69
2022/05/06 13:36:52;;;;;;;8.82;3.20;;;26.40;48.00;;;;;;9186884;19;20015;-70
2022/05/06 13:40:07;;;;;;;3.80;3.00;;;26.30;48.00;;;;;;9185018;19;20463;-69
2022/05/06 13:43:12;;;;;;;4.47;3.38;;;26.30;47.80;;;;;;9182383;19;20638;-68
2022/05/06 13:46:18;;;;;;;7.13;4.35;;;26.20;48.00;;;;;;9186842;19;20014;-70
2022/05/06 13:49:23;;;;;;;4.00;3.28;;;26.10;48.60;;;;;;9186658;19;20052;-68
2022/05/06 13:52:37;;;;;;;5.07;3.28;;;26.00;48.00;;;;;;9187959;19;20479;-68
2022/05/06 13:59:07;;;;;;;5.85;4.20;;;25.90;47.90;;;;;;9183964;19;20018;-69
2022/05/06 14:02:12;;;;;;;6.18;3.75;;;25.90;48.00;;;;;;9185391;19;20021;-69
2022/05/06 14:05:18;;;;;;;8.05;4.60;;;25.90;47.90;;;;;;9182774;19;20014;-68
2022/05/06 14:08:26;;;;;;;11.23;5.00;;;25.90;47.70;;;;;;9183689;19;20025;-70
2022/05/06 14:11:36;;;;;;;7.97;4.68;;;25.80;47.60;;;;;;9185602;19;20066;-69
2022/05/06 14:14:49;;;;;;;10.52;4.68;;;25.80;47.50;;;;;;9185190;19;20019;-68
2022/05/06 14:17:54;;;;;;;7.40;4.78;;;25.80;47.60;;;;;;9187170;19;20616;-69
2022/05/06 14:21:07;;;;;;;20.52;5.32;;;25.80;47.80;;;;;;9185104;19;20575;-68
2022/05/06 14:24:17;;;;;;;9.32;4.80;;;25.80;47.80;;;;;;9185221;19;20094;-69
2022/05/06 14:27:26;;;;;;;8.75;4.95;;;25.70;47.50;;;;;;9186022;19;20017;-69
2022/05/06 14:30:32;;;;;;;9.90;5.43;;;25.70;47.40;;;;;;9183949;19;20018;-69
2022/05/06 14:33:43;;;;;;;8.18;5.30;;;25.70;47.30;;;;;;9184093;19;20015;-69
2022/05/06 14:36:53;;;;;;;10.88;5.57;;;25.70;47.30;;;;;;9185254;19;20023;-69
2022/05/06 14:39:58;;;;;;;8.27;4.20;;;25.60;47.20;;;;;;9183199;19;20019;-69
2022/05/06 14:43:06;;;;;;;7.10;4.03;;;25.60;47.30;;;;;;9182206;19;20377;-69
2022/05/06 14:46:14;;;;;;;8.50;4.47;;;25.50;46.90;;;;;;9183589;19;20026;-69
2022/05/06 14:49:19;;;;;;;6.47;4.13;;;25.50;47.00;;;;;;9183897;19;20044;-71
2022/05/06 14:52:24;;;;;;;6.60;3.97;;;25.50;47.00;;;;;;9183724;19;20041;-69
2022/05/06 14:55:29;;;;;;;7.53;3.90;;;25.40;46.80;;;;;;9185285;19;20019;-71
2022/05/06 14:58:39;;;;;;;7.00;3.38;;;25.40;46.70;;;;;;9185007;19;20048;-69
2022/05/06 15:01:47;;;;;;;5.63;2.95;;;25.30;46.40;;;;;;9183406;19;20018;-69
2022/05/06 15:04:58;;;;;;;8.13;3.65;;;25.20;46.50;;;;;;9182396;19;20023;-69
2022/05/06 15:08:08;;;;;;;4.72;3.58;;;25.10;46.60;;;;;;9184816;19;20014;-69
2022/05/06 15:11:14;;;;;;;9.50;4.57;;;25.10;46.60;;;;;;9182230;19;20018;-70
2022/05/06 15:14:25;;;;;;;8.00;4.63;;;25.00;46.60;;;;;;9183389;19;20015;-69
2022/05/06 15:17:31;;;;;;;7.13;4.32;;;24.90;46.70;;;;;;9184082;19;20021;-69
2022/05/06 15:20:36;;;;;;;16.20;4.55;;;24.80;46.70;;;;;;9180672;19;20027;-69
2022/05/06 15:23:46;;;;;;;6.60;4.38;;;24.80;46.80;;;;;;9182990;19;20029;-68
2022/05/06 15:26:51;;;;;;;7.18;4.18;;;24.70;46.90;;;;;;9182975;19;20477;-69
2022/05/06 15:29:59;;;;;;;8.50;4.65;;;24.70;46.80;;;;;;9182519;19;20356;-69
2022/05/06 15:33:13;;;;;;;7.40;4.10;;;24.70;46.90;;;;;;9181879;19;20021;-69
2022/05/06 15:36:27;;;;;;;12.48;5.63;;;24.60;47.00;;;;;;9182116;19;20027;-71
2022/05/06 15:39:35;;;;;;;10.90;5.78;;;24.60;47.10;;;;;;9181082;19;20019;-69
2022/05/06 15:42:40;;;;;;;9.80;5.90;;;24.60;47.10;;;;;;9177045;19;20026;-69
2022/05/06 15:45:52;;;;;;;8.18;4.72;;;24.60;47.20;;;;;;9183709;19;20511;-69
2022/05/06 15:48:58;;;;;;;9.20;4.82;;;24.50;47.30;;;;;;9183106;19;20025;-70
2022/05/06 15:52:03;;;;;;;11.30;4.30;;;24.50;47.30;;;;;;9181661;19;20007;-70
2022/05/06 15:55:11;;;;;;;7.32;4.40;;;24.40;47.30;;;;;;9184174;19;20019;-69
2022/05/06 15:58:17;;;;;;;8.82;4.25;;;24.40;47.30;;;;;;9182479;19;20018;-71
2022/05/06 16:01:27;;;;;;;7.22;4.75;;;24.30;47.40;;;;;;9181050;19;20467;-70
2022/05/06 16:04:36;;;;;;;6.85;4.43;;;24.30;47.40;;;;;;9180797;19;20018;-70
2022/05/06 16:07:41;;;;;;;8.52;4.78;;;24.30;47.40;;;;;;9180474;19;20022;-69
2022/05/06 16:10:46;;;;;;;11.27;4.60;;;24.20;47.50;;;;;;9180755;19;20030;-70
2022/05/06 16:13:52;;;;;;;10.35;4.13;;;24.10;47.50;;;;;;9181350;19;20007;-70
2022/05/06 16:17:02;;;;;;;9.18;4.40;;;24.10;47.60;;;;;;9181757;19;20474;-69
2022/05/06 16:20:08;;;;;;;7.72;5.13;;;24.00;47.60;;;;;;9179895;19;20010;-69
2022/05/06 16:23:13;;;;;;;5.93;4.35;;;23.90;47.70;;;;;;9180427;19;20033;-70
2022/05/06 16:26:19;;;;;;;9.00;4.40;;;23.90;47.80;;;;;;9180490;19;20494;-70
2022/05/06 16:29:26;;;;;;;11.60;5.05;;;23.90;47.90;;;;;;9181436;19;20475;-71
2022/05/06 16:32:34;;;;;;;8.40;4.32;;;23.90;48.00;;;;;;9181658;19;20017;-70
2022/05/06 16:39:11;;;;;;;8.43;4.20;;;23.80;48.10;;;;;;9180420;19;20026;-71
2022/05/06 16:42:17;;;;;;;7.18;3.90;;;23.70;48.10;;;;;;9177685;19;20018;-71
2022/05/06 16:45:28;;;;;;;6.95;4.18;;;23.70;48.20;;;;;;9180332;19;20533;-70
2022/05/06 16:48:46;;;;;;;5.10;3.38;;;23.60;48.20;;;;;;9177827;19;20018;-70
2022/05/06 16:51:51;;;;;;;7.90;3.42;;;23.60;48.30;;;;;;9179388;19;20015;-70
2022/05/06 16:54:59;;;;;;;10.95;5.15;;;23.50;48.30;;;;;;9179752;19;20111;-72
2022/05/06 16:58:05;;;;;;;8.02;3.80;;;23.50;48.40;;;;;;9177189;19;20076;-70
2022/05/06 17:01:10;;;;;;;6.63;3.30;;;23.40;48.50;;;;;;9177701;19;20011;-70
2022/05/06 17:04:18;;;;;;;7.28;3.55;;;23.30;48.60;;;;;;9179812;19;20014;-70
2022/05/06 17:07:26;;;;;;;10.05;3.83;;;23.20;48.60;;;;;;9179133;19;20015;-71